sensor_id;sensor_type;location;lat;lon;timestamp;temperature;humidity
4429;DHT22;2227;47.810;8.810;2023-01-31T04:49:46;1.60;99.90
4429;DHT22;2227;47.810;8.810;2023-01-31T04:52:13;1.60;99.90
4429;DHT22;2227;47.810;8.810;2023-01-31T04:54:39;1.70;99.90
4429;DHT22;2227;47.810;8.810;2023-01-31T04:57:07;1.60;99.90
4429;DHT22;2227;47.810;8.810;2023-01-31T04:59:34;1.70;99.90
4429;DHT22;2227;47.810;8.810;2023-01-31T05:02:01;1.90;99.90
4429;DHT22;2227;47.810;8.810;2023-01-31T05:04:28;1.90;99.90
4429;DHT22;2227;47.810;8.810;2023-01-31T05:06:54;1.80;99.90
4429;DHT22;2227;47.810;8.810;2023-01-31T05:09:21;1.90;99.90
4429;DHT22;2227;47.810;8.810;2023-01-31T05:11:48;2.00;99.90
4429;DHT22;2227;47.810;8.810;2023-01-31T05:14:15;2.00;99.90
4429;DHT22;2227;47.810;8.810;2023-01-31T05:16:42;2.10;99.90
4429;DHT22;2227;47.810;8.810;2023-01-31T05:19:13;2.10;99.90
4429;DHT22;2227;47.810;8.810;2023-01-31T05:21:40;2.20;99.90
4429;DHT22;2227;47.810;8.810;2023-01-31T05:24:21;2.20;99.90
4429;DHT22;2227;47.810;8.810;2023-01-31T05:26:48;2.20;99.90
4429;DHT22;2227;47.810;8.810;2023-01-31T05:29:17;2.20;99.90
4429;DHT22;2227;47.810;8.810;2023-01-31T05:31:44;2.20;99.90
4429;DHT22;2227;47.810;8.810;2023-01-31T05:34:11;2.20;99.90
4429;DHT22;2227;47.810;8.810;2023-01-31T05:36:41;2.10;99.90
4429;DHT22;2227;47.810;8.810;2023-01-31T05:39:08;2.20;99.90
4429;DHT22;2227;47.810;8.810;2023-01-31T05:41:35;2.20;99.90
4429;DHT22;2227;47.810;8.810;2023-01-31T05:44:01;2.20;99.90
4429;DHT22;2227;47.810;8.810;2023-01-31T05:46:28;2.20;99.90
4429;DHT22;2227;47.810;8.810;2023-01-31T05:48:55;2.10;99.90
4429;DHT22;2227;47.810;8.810;2023-01-31T05:51:22;2.00;99.90
4429;DHT22;2227;47.810;8.810;2023-01-31T05:53:49;2.10;99.90
4429;DHT22;2227;47.810;8.810;2023-01-31T05:56:15;2.10;99.90
4429;DHT22;2227;47.810;8.810;2023-01-31T05:58:42;2.10;99.90
4429;DHT22;2227;47.810;8.810;2023-01-31T06:01:09;2.10;99.90
4429;DHT22;2227;47.810;8.810;2023-01-31T06:03:35;2.10;99.90
4429;DHT22;2227;47.810;8.810;2023-01-31T06:06:02;2.10;99.90
4429;DHT22;2227;47.810;8.810;2023-01-31T06:08:30;2.00;99.90
4429;DHT22;2227;47.810;8.810;2023-01-31T06:11:01;2.00;99.90
4429;DHT22;2227;47.810;8.810;2023-01-31T06:13:27;2.10;99.90
4429;DHT22;2227;47.810;8.810;2023-01-31T06:16:06;2.10;99.90
4429;DHT22;2227;47.810;8.810;2023-01-31T06:18:33;2.10;99.90
4429;DHT22;2227;47.810;8.810;2023-01-31T06:21:00;2.10;99.90
4429;DHT22;2227;47.810;8.810;2023-01-31T06:23:27;2.00;99.90
4429;DHT22;2227;47.810;8.810;2023-01-31T06:25:54;2.00;99.90
4429;DHT22;2227;47.810;8.810;2023-01-31T06:28:21;2.00;99.90
4429;DHT22;2227;47.810;8.810;2023-01-31T06:30:48;2.00;99.90
4429;DHT22;2227;47.810;8.810;2023-01-31T06:33:15;2.10;99.90
4429;DHT22;2227;47.810;8.810;2023-01-31T06:35:42;2.00;99.90
4429;DHT22;2227;47.810;8.810;2023-01-31T06:38:09;2.00;99.90
4429;DHT22;2227;47.810;8.810;2023-01-31T06:40:38;2.00;99.90
4429;DHT22;2227;47.810;8.810;2023-01-31T06:43:04;1.90;99.90
4429;DHT22;2227;47.810;8.810;2023-01-31T06:45:31;1.90;99.90
4429;DHT22;2227;47.810;8.810;2023-01-31T06:47:58;1.90;99.90
4429;DHT22;2227;47.810;8.810;2023-01-31T06:50:25;1.90;99.90
4429;DHT22;2227;47.810;8.810;2023-01-31T06:52:52;1.90;99.90
4429;DHT22;2227;47.810;8.810;2023-01-31T06:55:18;1.90;99.90
4429;DHT22;2227;47.810;8.810;2023-01-31T06:57:47;1.90;99.90
4429;DHT22;2227;47.810;8.810;2023-01-31T07:00:14;2.00;99.90
4429;DHT22;2227;47.810;8.810;2023-01-31T07:02:41;2.00;99.90
4429;DHT22;2227;47.810;8.810;2023-01-31T07:05:08;1.90;99.90
4429;DHT22;2227;47.810;8.810;2023-01-31T07:07:35;2.00;99.90
4429;DHT22;2227;47.810;8.810;2023-01-31T07:10:01;1.90;99.90
4429;DHT22;2227;47.810;8.810;2023-01-31T07:12:28;1.80;99.90
4429;DHT22;2227;47.810;8.810;2023-01-31T07:14:55;1.60;99.90
4429;DHT22;2227;47.810;8.810;2023-01-31T07:17:22;1.40;99.90
4429;DHT22;2227;47.810;8.810;2023-01-31T07:19:49;1.50;99.90
4429;DHT22;2227;47.810;8.810;2023-01-31T07:22:15;1.70;99.90
4429;DHT22;2227;47.810;8.810;2023-01-31T07:24:42;1.80;99.90
4429;DHT22;2227;47.810;8.810;2023-01-31T07:27:12;1.70;99.90
4429;DHT22;2227;47.810;8.810;2023-01-31T07:29:39;1.60;99.90
4429;DHT22;2227;47.810;8.810;2023-01-31T07:32:06;1.10;99.90
4429;DHT22;2227;47.810;8.810;2023-01-31T07:34:32;0.90;99.90
4429;DHT22;2227;47.810;8.810;2023-01-31T07:36:59;1.00;99.90
4429;DHT22;2227;47.810;8.810;2023-01-31T07:39:27;0.90;99.90
4429;DHT22;2227;47.810;8.810;2023-01-31T07:41:54;1.00;99.90
4429;DHT22;2227;47.810;8.810;2023-01-31T07:44:21;1.10;99.90
4429;DHT22;2227;47.810;8.810;2023-01-31T07:46:47;1.30;99.90
4429;DHT22;2227;47.810;8.810;2023-01-31T07:49:14;1.00;99.90
4429;DHT22;2227;47.810;8.810;2023-01-31T07:51:41;1.00;99.90
4429;DHT22;2227;47.810;8.810;2023-01-31T07:54:10;1.20;99.90
4429;DHT22;2227;47.810;8.810;2023-01-31T07:56:37;1.10;99.90
4429;DHT22;2227;47.810;8.810;2023-01-31T07:59:04;0.90;99.90
4429;DHT22;2227;47.810;8.810;2023-01-31T08:01:30;1.20;99.90
4429;DHT22;2227;47.810;8.810;2023-01-31T08:04:16;1.50;99.90
4429;DHT22;2227;47.810;8.810;2023-01-31T08:06:49;1.70;99.90
4429;DHT22;2227;47.810;8.810;2023-01-31T08:09:16;1.90;99.90
4429;DHT22;2227;47.810;8.810;2023-01-31T08:11:43;2.00;99.90
4429;DHT22;2227;47.810;8.810;2023-01-31T08:14:09;2.10;99.90
4429;DHT22;2227;47.810;8.810;2023-01-31T08:16:36;2.20;99.90
4429;DHT22;2227;47.810;8.810;2023-01-31T08:19:04;2.30;99.90
4429;DHT22;2227;47.810;8.810;2023-01-31T08:21:30;2.20;99.90
4429;DHT22;2227;47.810;8.810;2023-01-31T08:23:57;2.30;99.90
4429;DHT22;2227;47.810;8.810;2023-01-31T08:26:24;2.10;99.90
4429;DHT22;2227;47.810;8.810;2023-01-31T08:28:52;2.30;99.90
4429;DHT22;2227;47.810;8.810;2023-01-31T08:31:22;2.50;99.90
4429;DHT22;2227;47.810;8.810;2023-01-31T08:33:49;2.60;99.90
4429;DHT22;2227;47.810;8.810;2023-01-31T08:36:23;2.50;99.90
4429;DHT22;2227;47.810;8.810;2023-01-31T08:38:50;2.60;99.90
4429;DHT22;2227;47.810;8.810;2023-01-31T08:41:19;2.30;99.90
4429;DHT22;2227;47.810;8.810;2023-01-31T08:43:46;2.40;99.90
4429;DHT22;2227;47.810;8.810;2023-01-31T08:46:25;2.70;99.90
4429;DHT22;2227;47.810;8.810;2023-01-31T08:48:52;2.90;99.90
4429;DHT22;2227;47.810;8.810;2023-01-31T08:51:20;3.00;99.90
4429;DHT22;2227;47.810;8.810;2023-01-31T08:53:47;3.30;99.90
4429;DHT22;2227;47.810;8.810;2023-01-31T08:56:14;3.20;99.90
4429;DHT22;2227;47.810;8.810;2023-01-31T08:58:43;3.20;99.90
4429;DHT22;2227;47.810;8.810;2023-01-31T09:01:12;3.00;99.90
4429;DHT22;2227;47.810;8.810;2023-01-31T09:03:40;3.00;99.90
4429;DHT22;2227;47.810;8.810;2023-01-31T09:06:18;3.10;99.90
4429;DHT22;2227;47.810;8.810;2023-01-31T09:08:45;3.30;99.90
4429;DHT22;2227;47.810;8.810;2023-01-31T09:11:12;3.30;99.90
4429;DHT22;2227;47.810;8.810;2023-01-31T09:13:45;3.40;99.90
4429;DHT22;2227;47.810;8.810;2023-01-31T09:16:13;3.40;99.90
4429;DHT22;2227;47.810;8.810;2023-01-31T09:18:41;3.70;99.90
4429;DHT22;2227;47.810;8.810;2023-01-31T09:21:18;4.00;99.90
4429;DHT22;2227;47.810;8.810;2023-01-31T09:23:46;4.40;99.90
4429;DHT22;2227;47.810;8.810;2023-01-31T09:26:14;4.70;99.90
4429;DHT22;2227;47.810;8.810;2023-01-31T09:28:41;4.80;99.90
4429;DHT22;2227;47.810;8.810;2023-01-31T09:31:11;4.90;99.90
4429;DHT22;2227;47.810;8.810;2023-01-31T09:33:39;5.00;99.90
4429;DHT22;2227;47.810;8.810;2023-01-31T09:36:08;4.80;99.90
4429;DHT22;2227;47.810;8.810;2023-01-31T09:38:35;5.00;99.90
4429;DHT22;2227;47.810;8.810;2023-01-31T09:41:15;5.10;99.90
4429;DHT22;2227;47.810;8.810;2023-01-31T09:43:49;5.30;99.90
4429;DHT22;2227;47.810;8.810;2023-01-31T09:46:19;5.90;99.90
4429;DHT22;2227;47.810;8.810;2023-01-31T09:48:49;7.10;99.90
4429;DHT22;2227;47.810;8.810;2023-01-31T09:51:17;7.80;99.90
4429;DHT22;2227;47.810;8.810;2023-01-31T09:53:45;8.60;99.90
4429;DHT22;2227;47.810;8.810;2023-01-31T09:59:15;9.30;99.90
4429;DHT22;2227;47.810;8.810;2023-01-31T10:07:51;11.50;99.90
4429;DHT22;2227;47.810;8.810;2023-01-31T10:10:23;13.70;99.60
4429;DHT22;2227;47.810;8.810;2023-01-31T10:12:57;15.80;93.10
4429;DHT22;2227;47.810;8.810;2023-01-31T10:15:42;17.60;83.30
4429;DHT22;2227;47.810;8.810;2023-01-31T10:18:27;19.00;71.60
4429;DHT22;2227;47.810;8.810;2023-01-31T10:21:40;20.10;64.70
4429;DHT22;2227;47.810;8.810;2023-01-31T10:24:28;21.40;58.30
4429;DHT22;2227;47.810;8.810;2023-01-31T10:27:03;22.30;54.00
4429;DHT22;2227;47.810;8.810;2023-01-31T10:29:38;23.30;51.40
4429;DHT22;2227;47.810;8.810;2023-01-31T10:32:23;23.30;48.90
4429;DHT22;2227;47.810;8.810;2023-01-31T10:35:01;23.50;47.60
4429;DHT22;2227;47.810;8.810;2023-01-31T10:37:42;23.20;46.90
4429;DHT22;2227;47.810;8.810;2023-01-31T10:40:23;22.70;46.10
4429;DHT22;2227;47.810;8.810;2023-01-31T10:42:58;19.90;51.50
4429;DHT22;2227;47.810;8.810;2023-01-31T10:45:27;19.60;52.50
4429;DHT22;2227;47.810;8.810;2023-01-31T10:48:19;19.20;52.30
4429;DHT22;2227;47.810;8.810;2023-01-31T10:51:06;17.60;55.00
4429;DHT22;2227;47.810;8.810;2023-01-31T10:53:36;16.40;57.00
4429;DHT22;2227;47.810;8.810;2023-01-31T10:56:33;14.00;62.60
4429;DHT22;2227;47.810;8.810;2023-01-31T10:59:09;12.80;66.20
4429;DHT22;2227;47.810;8.810;2023-01-31T11:01:38;10.20;74.10
4429;DHT22;2227;47.810;8.810;2023-01-31T11:04:30;8.60;81.90
4429;DHT22;2227;47.810;8.810;2023-01-31T11:06:59;7.50;90.60
4429;DHT22;2227;47.810;8.810;2023-01-31T11:09:31;7.30;94.50
4429;DHT22;2227;47.810;8.810;2023-01-31T11:12:01;7.60;96.20
4429;DHT22;2227;47.810;8.810;2023-01-31T11:14:28;7.70;97.30
4429;DHT22;2227;47.810;8.810;2023-01-31T11:17:04;7.50;98.00
4429;DHT22;2227;47.810;8.810;2023-01-31T11:19:38;7.00;99.90
4429;DHT22;2227;47.810;8.810;2023-01-31T11:22:07;7.10;99.90
4429;DHT22;2227;47.810;8.810;2023-01-31T11:24:36;7.20;99.90
4429;DHT22;2227;47.810;8.810;2023-01-31T11:27:09;6.50;99.90
4429;DHT22;2227;47.810;8.810;2023-01-31T11:29:39;6.50;99.90
4429;DHT22;2227;47.810;8.810;2023-01-31T11:32:19;6.70;99.90
4429;DHT22;2227;47.810;8.810;2023-01-31T11:35:30;6.40;99.90
4429;DHT22;2227;47.810;8.810;2023-01-31T11:38:00;6.10;99.90
4429;DHT22;2227;47.810;8.810;2023-01-31T11:40:28;6.40;99.90
4429;DHT22;2227;47.810;8.810;2023-01-31T11:43:43;6.80;99.90
4429;DHT22;2227;47.810;8.810;2023-01-31T11:45:51;7.80;99.90
4429;DHT22;2227;47.810;8.810;2023-01-31T11:48:40;9.20;99.90
4429;DHT22;2227;47.810;8.810;2023-01-31T11:51:07;9.40;98.60
4429;DHT22;2227;47.810;8.810;2023-01-31T11:53:42;9.60;99.10
4429;DHT22;2227;47.810;8.810;2023-01-31T11:56:17;10.90;97.10
4429;DHT22;2227;47.810;8.810;2023-01-31T11:58:46;11.80;93.40
4429;DHT22;2227;47.810;8.810;2023-01-31T12:01:17;12.60;90.30
4429;DHT22;2227;47.810;8.810;2023-01-31T12:04:00;11.80;90.40
4429;DHT22;2227;47.810;8.810;2023-01-31T12:06:37;11.50;91.40
4429;DHT22;2227;47.810;8.810;2023-01-31T12:09:19;11.20;92.80
4429;DHT22;2227;47.810;8.810;2023-01-31T12:11:59;11.90;92.40
4429;DHT22;2227;47.810;8.810;2023-01-31T12:14:40;12.80;90.70
4429;DHT22;2227;47.810;8.810;2023-01-31T12:17:12;13.30;88.00
4429;DHT22;2227;47.810;8.810;2023-01-31T12:22:38;11.00;91.80
4429;DHT22;2227;47.810;8.810;2023-01-31T12:30:23;10.00;94.40
4429;DHT22;2227;47.810;8.810;2023-01-31T12:38:46;9.50;96.20
4429;DHT22;2227;47.810;8.810;2023-01-31T12:55:16;9.50;96.40
4429;DHT22;2227;47.810;8.810;2023-01-31T13:05:56;8.00;98.80
4429;DHT22;2227;47.810;8.810;2023-01-31T13:08:29;8.00;99.90
4429;DHT22;2227;47.810;8.810;2023-01-31T13:11:10;7.80;99.90
4429;DHT22;2227;47.810;8.810;2023-01-31T13:13:48;7.80;99.90
4429;DHT22;2227;47.810;8.810;2023-01-31T13:16:20;8.00;99.90
4429;DHT22;2227;47.810;8.810;2023-01-31T13:18:49;7.70;99.90
4429;DHT22;2227;47.810;8.810;2023-01-31T13:21:20;7.50;99.90
4429;DHT22;2227;47.810;8.810;2023-01-31T13:23:52;7.90;99.90
4429;DHT22;2227;47.810;8.810;2023-01-31T13:26:22;7.70;99.90
4429;DHT22;2227;47.810;8.810;2023-01-31T13:29:05;7.20;99.90
4429;DHT22;2227;47.810;8.810;2023-01-31T13:31:42;7.40;99.90
4429;DHT22;2227;47.810;8.810;2023-01-31T13:34:34;7.80;99.90
4429;DHT22;2227;47.810;8.810;2023-01-31T13:37:13;8.00;99.90
4429;DHT22;2227;47.810;8.810;2023-01-31T13:39:49;7.90;99.90
4429;DHT22;2227;47.810;8.810;2023-01-31T13:42:17;8.10;99.90
4429;DHT22;2227;47.810;8.810;2023-01-31T13:44:45;8.10;99.90
4429;DHT22;2227;47.810;8.810;2023-01-31T13:47:23;7.70;99.90
4429;DHT22;2227;47.810;8.810;2023-01-31T13:50:05;7.50;99.90
4429;DHT22;2227;47.810;8.810;2023-01-31T13:52:46;7.10;99.90
4429;DHT22;2227;47.810;8.810;2023-01-31T13:55:31;7.20;99.90
4429;DHT22;2227;47.810;8.810;2023-01-31T13:58:27;7.20;99.90
4429;DHT22;2227;47.810;8.810;2023-01-31T14:01:04;7.30;99.90
4429;DHT22;2227;47.810;8.810;2023-01-31T14:09:30;6.70;99.90
4429;DHT22;2227;47.810;8.810;2023-01-31T14:11:59;6.80;99.90
4429;DHT22;2227;47.810;8.810;2023-01-31T14:23:29;6.80;99.90
4429;DHT22;2227;47.810;8.810;2023-01-31T14:25:14;6.30;99.90
4429;DHT22;2227;47.810;8.810;2023-01-31T14:27:44;5.90;99.90
4429;DHT22;2227;47.810;8.810;2023-01-31T14:30:39;5.60;99.90
4429;DHT22;2227;47.810;8.810;2023-01-31T14:41:20;5.50;99.90
4429;DHT22;2227;47.810;8.810;2023-01-31T14:47:16;5.10;99.90
4429;DHT22;2227;47.810;8.810;2023-01-31T14:49:59;5.50;99.90
4429;DHT22;2227;47.810;8.810;2023-01-31T14:53:01;5.40;99.90
4429;DHT22;2227;47.810;8.810;2023-01-31T14:58:21;5.60;99.90
4429;DHT22;2227;47.810;8.810;2023-01-31T15:00:59;5.50;99.90
4429;DHT22;2227;47.810;8.810;2023-01-31T15:03:30;5.30;99.90
4429;DHT22;2227;47.810;8.810;2023-01-31T15:06:09;5.20;99.90
4429;DHT22;2227;47.810;8.810;2023-01-31T15:08:48;5.20;99.90
4429;DHT22;2227;47.810;8.810;2023-01-31T15:11:35;5.20;99.90
4429;DHT22;2227;47.810;8.810;2023-01-31T15:14:28;5.50;99.90
4429;DHT22;2227;47.810;8.810;2023-01-31T15:17:11;5.30;99.90
4429;DHT22;2227;47.810;8.810;2023-01-31T15:20:11;5.30;99.90
4429;DHT22;2227;47.810;8.810;2023-01-31T15:22:41;5.50;99.90
4429;DHT22;2227;47.810;8.810;2023-01-31T15:25:20;5.50;99.90
4429;DHT22;2227;47.810;8.810;2023-01-31T15:27:48;5.40;99.90
4429;DHT22;2227;47.810;8.810;2023-01-31T15:30:19;5.30;99.90
4429;DHT22;2227;47.810;8.810;2023-01-31T15:32:54;5.20;99.90
4429;DHT22;2227;47.810;8.810;2023-01-31T15:35:33;5.30;99.90
4429;DHT22;2227;47.810;8.810;2023-01-31T15:41:24;5.10;99.90
4429;DHT22;2227;47.810;8.810;2023-01-31T15:44:05;5.10;99.90
4429;DHT22;2227;47.810;8.810;2023-01-31T15:46:35;5.30;99.90
4429;DHT22;2227;47.810;8.810;2023-01-31T15:49:19;5.20;99.90
4429;DHT22;2227;47.810;8.810;2023-01-31T15:54:34;5.10;99.90
4429;DHT22;2227;47.810;8.810;2023-01-31T15:57:01;4.90;99.90
4429;DHT22;2227;47.810;8.810;2023-01-31T15:59:31;4.80;99.90
4429;DHT22;2227;47.810;8.810;2023-01-31T16:02:03;5.10;99.90
4429;DHT22;2227;47.810;8.810;2023-01-31T16:04:30;5.10;99.90
4429;DHT22;2227;47.810;8.810;2023-01-31T16:06:57;5.00;99.90
4429;DHT22;2227;47.810;8.810;2023-01-31T16:09:31;5.30;99.90
4429;DHT22;2227;47.810;8.810;2023-01-31T16:12:00;5.30;99.90
4429;DHT22;2227;47.810;8.810;2023-01-31T16:14:27;5.20;99.90
4429;DHT22;2227;47.810;8.810;2023-01-31T16:16:56;5.40;99.90
4429;DHT22;2227;47.810;8.810;2023-01-31T16:19:27;5.70;99.90
4429;DHT22;2227;47.810;8.810;2023-01-31T16:21:54;5.80;99.90
4429;DHT22;2227;47.810;8.810;2023-01-31T16:24:23;5.80;99.90
4429;DHT22;2227;47.810;8.810;2023-01-31T16:27:07;5.60;99.90
4429;DHT22;2227;47.810;8.810;2023-01-31T16:32:15;5.60;99.90
4429;DHT22;2227;47.810;8.810;2023-01-31T16:34:54;5.20;99.90
4429;DHT22;2227;47.810;8.810;2023-01-31T16:37:41;5.30;99.90
4429;DHT22;2227;47.810;8.810;2023-01-31T16:40:29;5.30;99.90
4429;DHT22;2227;47.810;8.810;2023-01-31T16:43:25;5.50;99.90
4429;DHT22;2227;47.810;8.810;2023-01-31T16:45:57;5.40;99.90
4429;DHT22;2227;47.810;8.810;2023-01-31T16:50:56;5.20;99.90
4429;DHT22;2227;47.810;8.810;2023-01-31T16:53:30;5.00;99.90
4429;DHT22;2227;47.810;8.810;2023-01-31T17:01:16;4.60;99.90
4429;DHT22;2227;47.810;8.810;2023-01-31T17:03:46;4.50;99.90
4429;DHT22;2227;47.810;8.810;2023-01-31T17:06:25;4.60;99.90
4429;DHT22;2227;47.810;8.810;2023-01-31T17:08:52;4.60;99.90
4429;DHT22;2227;47.810;8.810;2023-01-31T17:11:18;4.50;99.90
4429;DHT22;2227;47.810;8.810;2023-01-31T17:14:06;4.50;99.90
4429;DHT22;2227;47.810;8.810;2023-01-31T17:16:33;4.60;99.90
4429;DHT22;2227;47.810;8.810;2023-01-31T17:19:00;4.70;99.90
4429;DHT22;2227;47.810;8.810;2023-01-31T17:21:26;4.60;99.90
4429;DHT22;2227;47.810;8.810;2023-01-31T17:23:54;4.50;99.90
4429;DHT22;2227;47.810;8.810;2023-01-31T17:26:22;4.50;99.90
4429;DHT22;2227;47.810;8.810;2023-01-31T17:28:48;4.60;99.90
4429;DHT22;2227;47.810;8.810;2023-01-31T17:31:26;4.50;99.90
4429;DHT22;2227;47.810;8.810;2023-01-31T17:33:55;4.70;99.90
4429;DHT22;2227;47.810;8.810;2023-01-31T17:36:21;4.90;99.90
4429;DHT22;2227;47.810;8.810;2023-01-31T17:38:48;4.80;99.90
4429;DHT22;2227;47.810;8.810;2023-01-31T17:41:18;4.90;99.90
4429;DHT22;2227;47.810;8.810;2023-01-31T17:43:45;4.80;99.90
4429;DHT22;2227;47.810;8.810;2023-01-31T17:46:16;4.80;99.90
4429;DHT22;2227;47.810;8.810;2023-01-31T17:48:44;4.80;99.90
4429;DHT22;2227;47.810;8.810;2023-01-31T17:51:11;4.80;99.90
4429;DHT22;2227;47.810;8.810;2023-01-31T17:53:38;5.00;99.90
4429;DHT22;2227;47.810;8.810;2023-01-31T17:56:16;5.10;99.90
4429;DHT22;2227;47.810;8.810;2023-01-31T17:58:44;5.30;99.90
4429;DHT22;2227;47.810;8.810;2023-01-31T18:01:11;4.90;99.90
4429;DHT22;2227;47.810;8.810;2023-01-31T18:03:40;4.90;99.90
4429;DHT22;2227;47.810;8.810;2023-01-31T18:06:08;4.70;99.90
4429;DHT22;2227;47.810;8.810;2023-01-31T18:08:35;4.70;99.90
4429;DHT22;2227;47.810;8.810;2023-01-31T18:11:12;4.90;99.90
4429;DHT22;2227;47.810;8.810;2023-01-31T18:13:41;5.20;99.90
4429;DHT22;2227;47.810;8.810;2023-01-31T18:16:13;4.90;99.90
4429;DHT22;2227;47.810;8.810;2023-01-31T18:18:41;4.80;99.90
4429;DHT22;2227;47.810;8.810;2023-01-31T18:21:17;4.90;99.90
4429;DHT22;2227;47.810;8.810;2023-01-31T18:23:49;5.10;99.90
4429;DHT22;2227;47.810;8.810;2023-01-31T18:26:16;5.20;99.90
4429;DHT22;2227;47.810;8.810;2023-01-31T18:28:43;5.10;99.90
4429;DHT22;2227;47.810;8.810;2023-01-31T18:31:10;5.00;99.90
4429;DHT22;2227;47.810;8.810;2023-01-31T18:33:40;5.00;99.90
4429;DHT22;2227;47.810;8.810;2023-01-31T18:36:10;4.90;99.90
4429;DHT22;2227;47.810;8.810;2023-01-31T18:38:40;5.00;99.90
4429;DHT22;2227;47.810;8.810;2023-01-31T18:41:10;5.00;99.90
4429;DHT22;2227;47.810;8.810;2023-01-31T18:43:40;5.00;99.90
4429;DHT22;2227;47.810;8.810;2023-01-31T18:46:08;4.80;99.90
4429;DHT22;2227;47.810;8.810;2023-01-31T18:48:36;4.60;99.90
4429;DHT22;2227;47.810;8.810;2023-01-31T18:51:06;4.80;99.90
4429;DHT22;2227;47.810;8.810;2023-01-31T18:53:35;4.80;99.90
4429;DHT22;2227;47.810;8.810;2023-01-31T18:56:05;4.80;99.90
4429;DHT22;2227;47.810;8.810;2023-01-31T18:58:33;4.90;99.90
4429;DHT22;2227;47.810;8.810;2023-01-31T19:01:14;5.00;99.90
4429;DHT22;2227;47.810;8.810;2023-01-31T19:03:41;5.10;99.90
4429;DHT22;2227;47.810;8.810;2023-01-31T19:06:11;5.10;99.90
4429;DHT22;2227;47.810;8.810;2023-01-31T19:08:38;5.10;99.90
4429;DHT22;2227;47.810;8.810;2023-01-31T19:11:08;5.10;99.90
4429;DHT22;2227;47.810;8.810;2023-01-31T19:13:36;5.10;99.90
4429;DHT22;2227;47.810;8.810;2023-01-31T19:16:06;5.00;99.90
4429;DHT22;2227;47.810;8.810;2023-01-31T19:18:33;5.10;99.90
4429;DHT22;2227;47.810;8.810;2023-01-31T19:21:00;5.30;99.90
4429;DHT22;2227;47.810;8.810;2023-01-31T19:23:28;5.30;99.90
4429;DHT22;2227;47.810;8.810;2023-01-31T19:25:54;5.40;99.90
4429;DHT22;2227;47.810;8.810;2023-01-31T19:28:21;5.10;99.90
4429;DHT22;2227;47.810;8.810;2023-01-31T19:30:52;5.00;99.90
4429;DHT22;2227;47.810;8.810;2023-01-31T19:33:19;4.80;99.90
4429;DHT22;2227;47.810;8.810;2023-01-31T19:35:45;4.70;99.90
4429;DHT22;2227;47.810;8.810;2023-01-31T19:38:12;4.90;99.90
4429;DHT22;2227;47.810;8.810;2023-01-31T19:40:40;5.00;99.90
4429;DHT22;2227;47.810;8.810;2023-01-31T19:43:08;4.90;99.90
4429;DHT22;2227;47.810;8.810;2023-01-31T19:45:34;4.70;99.90
4429;DHT22;2227;47.810;8.810;2023-01-31T19:48:01;4.90;99.90
4429;DHT22;2227;47.810;8.810;2023-01-31T19:50:28;4.80;99.90
4429;DHT22;2227;47.810;8.810;2023-01-31T19:52:55;4.70;99.90
4429;DHT22;2227;47.810;8.810;2023-01-31T19:55:21;4.60;99.90
4429;DHT22;2227;47.810;8.810;2023-01-31T19:57:49;4.60;99.90
4429;DHT22;2227;47.810;8.810;2023-01-31T20:00:16;4.80;99.90
4429;DHT22;2227;47.810;8.810;2023-01-31T20:02:42;4.90;99.90
4429;DHT22;2227;47.810;8.810;2023-01-31T20:05:10;4.80;99.90
4429;DHT22;2227;47.810;8.810;2023-01-31T20:07:40;4.80;99.90
4429;DHT22;2227;47.810;8.810;2023-01-31T20:10:11;4.80;99.90
4429;DHT22;2227;47.810;8.810;2023-01-31T20:12:38;4.60;99.90
4429;DHT22;2227;47.810;8.810;2023-01-31T20:15:06;4.70;99.90
4429;DHT22;2227;47.810;8.810;2023-01-31T20:17:33;4.60;99.90
4429;DHT22;2227;47.810;8.810;2023-01-31T20:20:00;4.60;99.90
4429;DHT22;2227;47.810;8.810;2023-01-31T20:22:27;4.70;99.90
4429;DHT22;2227;47.810;8.810;2023-01-31T20:24:54;4.60;99.90
4429;DHT22;2227;47.810;8.810;2023-01-31T20:27:23;4.60;99.90
4429;DHT22;2227;47.810;8.810;2023-01-31T20:29:50;4.90;99.90
4429;DHT22;2227;47.810;8.810;2023-01-31T20:32:17;4.90;99.90
4429;DHT22;2227;47.810;8.810;2023-01-31T20:34:44;4.90;99.90
4429;DHT22;2227;47.810;8.810;2023-01-31T20:37:11;4.60;99.90
4429;DHT22;2227;47.810;8.810;2023-01-31T20:39:37;4.70;99.90
4429;DHT22;2227;47.810;8.810;2023-01-31T20:42:04;4.70;99.90
4429;DHT22;2227;47.810;8.810;2023-01-31T20:44:31;4.60;99.90
4429;DHT22;2227;47.810;8.810;2023-01-31T20:46:57;4.60;99.90
4429;DHT22;2227;47.810;8.810;2023-01-31T20:49:24;4.60;99.90
4429;DHT22;2227;47.810;8.810;2023-01-31T20:51:52;4.40;99.90
4429;DHT22;2227;47.810;8.810;2023-01-31T20:54:19;4.40;99.90
4429;DHT22;2227;47.810;8.810;2023-01-31T20:56:46;4.50;99.90
4429;DHT22;2227;47.810;8.810;2023-01-31T20:59:13;4.40;99.90
4429;DHT22;2227;47.810;8.810;2023-01-31T21:01:40;4.50;99.90
4429;DHT22;2227;47.810;8.810;2023-01-31T21:04:08;4.50;99.90
4429;DHT22;2227;47.810;8.810;2023-01-31T21:06:35;4.60;99.90
4429;DHT22;2227;47.810;8.810;2023-01-31T21:09:02;4.60;99.90
4429;DHT22;2227;47.810;8.810;2023-01-31T21:11:28;4.50;99.90
4429;DHT22;2227;47.810;8.810;2023-01-31T21:13:55;4.60;99.90
4429;DHT22;2227;47.810;8.810;2023-01-31T21:16:22;4.50;99.90
4429;DHT22;2227;47.810;8.810;2023-01-31T21:18:48;4.50;99.90
4429;DHT22;2227;47.810;8.810;2023-01-31T21:21:17;4.40;99.90
4429;DHT22;2227;47.810;8.810;2023-01-31T21:23:50;4.40;99.90
4429;DHT22;2227;47.810;8.810;2023-01-31T21:26:18;4.50;99.90
4429;DHT22;2227;47.810;8.810;2023-01-31T21:28:46;4.40;99.90
4429;DHT22;2227;47.810;8.810;2023-01-31T21:31:15;4.50;99.90
4429;DHT22;2227;47.810;8.810;2023-01-31T21:33:47;4.60;99.90
4429;DHT22;2227;47.810;8.810;2023-01-31T21:36:17;4.70;99.90
4429;DHT22;2227;47.810;8.810;2023-01-31T21:38:44;4.70;99.90
4429;DHT22;2227;47.810;8.810;2023-01-31T21:41:11;4.90;99.90
4429;DHT22;2227;47.810;8.810;2023-01-31T21:43:57;4.80;99.90
4429;DHT22;2227;47.810;8.810;2023-01-31T21:46:24;4.70;99.90
4429;DHT22;2227;47.810;8.810;2023-01-31T21:48:51;4.70;99.90
4429;DHT22;2227;47.810;8.810;2023-01-31T21:51:20;4.70;99.90
4429;DHT22;2227;47.810;8.810;2023-01-31T21:53:47;4.70;99.90
4429;DHT22;2227;47.810;8.810;2023-01-31T21:56:19;4.70;99.90
4429;DHT22;2227;47.810;8.810;2023-01-31T21:58:46;4.70;99.90
4429;DHT22;2227;47.810;8.810;2023-01-31T22:01:24;4.80;99.90
4429;DHT22;2227;47.810;8.810;2023-01-31T22:03:52;4.90;99.90
4429;DHT22;2227;47.810;8.810;2023-01-31T22:06:24;4.90;99.90
4429;DHT22;2227;47.810;8.810;2023-01-31T22:09:00;4.80;99.90
4429;DHT22;2227;47.810;8.810;2023-01-31T22:11:27;4.70;99.90
4429;DHT22;2227;47.810;8.810;2023-01-31T22:14:00;4.80;99.90
4429;DHT22;2227;47.810;8.810;2023-01-31T22:16:26;4.80;99.90
4429;DHT22;2227;47.810;8.810;2023-01-31T22:18:53;4.80;99.90
4429;DHT22;2227;47.810;8.810;2023-01-31T22:21:23;4.90;99.90
4429;DHT22;2227;47.810;8.810;2023-01-31T22:23:52;4.90;99.90
4429;DHT22;2227;47.810;8.810;2023-01-31T22:26:22;4.90;99.90
4429;DHT22;2227;47.810;8.810;2023-01-31T22:28:50;4.90;99.90
4429;DHT22;2227;47.810;8.810;2023-01-31T22:31:17;5.10;99.90
4429;DHT22;2227;47.810;8.810;2023-01-31T22:33:44;5.10;99.90
4429;DHT22;2227;47.810;8.810;2023-01-31T22:36:13;5.00;99.90
4429;DHT22;2227;47.810;8.810;2023-01-31T22:38:40;4.90;99.90
4429;DHT22;2227;47.810;8.810;2023-01-31T22:41:16;5.00;99.90
4429;DHT22;2227;47.810;8.810;2023-01-31T22:43:47;5.10;99.90
4429;DHT22;2227;47.810;8.810;2023-01-31T22:46:16;5.30;99.90
4429;DHT22;2227;47.810;8.810;2023-01-31T22:48:44;5.30;99.90
4429;DHT22;2227;47.810;8.810;2023-01-31T22:51:13;5.20;99.90
4429;DHT22;2227;47.810;8.810;2023-01-31T22:53:41;5.00;99.90
4429;DHT22;2227;47.810;8.810;2023-01-31T22:56:11;4.90;99.90
4429;DHT22;2227;47.810;8.810;2023-01-31T22:58:38;4.70;99.90
4429;DHT22;2227;47.810;8.810;2023-01-31T23:01:14;4.60;99.90